createdAt,value
2019-03-19T00:00:51.378Z,101275.32
2019-03-19T00:06:01.297Z,101285.39
2019-03-19T00:11:09.188Z,101295.50
2019-03-19T00:16:39.252Z,101287.33
2019-03-19T00:21:52.244Z,101288.20
2019-03-19T00:27:00.405Z,101297.83
2019-03-19T00:32:08.410Z,101297.03
2019-03-19T00:37:16.572Z,101299.52
2019-03-19T00:42:27.057Z,101295.61
2019-03-19T00:47:36.711Z,101304.53
2019-03-19T00:52:46.622Z,101305.19
2019-03-19T00:57:56.264Z,101303.29
2019-03-19T01:03:04.198Z,101307.45
2019-03-19T01:08:13.060Z,101291.61
2019-03-19T01:13:22.436Z,101301.19
2019-03-19T01:18:30.360Z,101311.59
2019-03-19T01:23:39.208Z,101316.49
2019-03-19T01:28:47.772Z,101311.70
2019-03-19T01:33:57.448Z,101326.00
2019-03-19T01:39:07.374Z,101324.02
2019-03-19T01:44:19.328Z,101328.42
2019-03-19T01:49:26.712Z,101333.02
2019-03-19T01:54:34.398Z,101342.49
2019-03-19T01:59:42.593Z,101343.11
2019-03-19T02:04:49.552Z,101351.02
2019-03-19T02:10:01.230Z,101359.07
2019-03-19T02:15:14.465Z,101359.23
2019-03-19T02:20:20.886Z,101377.76
2019-03-19T02:25:28.555Z,101364.80
2019-03-19T02:30:36.673Z,101390.90
2019-03-19T02:35:44.160Z,101397.98
2019-03-19T02:40:54.596Z,101400.66
2019-03-19T02:46:00.794Z,101414.12
2019-03-19T02:51:07.536Z,101403.75
2019-03-19T02:56:31.290Z,101412.06
2019-03-19T03:01:24.646Z,101405.66
2019-03-19T03:06:30.959Z,101402.00
2019-03-19T03:11:37.676Z,101424.73
2019-03-19T03:16:44.520Z,101428.47
2019-03-19T03:21:51.407Z,101428.95
2019-03-19T03:27:02.288Z,101430.66
2019-03-19T03:32:10.391Z,101430.44
2019-03-19T03:37:17.065Z,101444.34
2019-03-19T03:42:25.510Z,101444.64
2019-03-19T03:47:35.854Z,101444.61
2019-03-19T03:52:42.671Z,101444.64
2019-03-19T03:57:49.485Z,101455.62
2019-03-19T04:02:57.996Z,101459.66
2019-03-19T04:08:05.458Z,101466.53
2019-03-19T04:13:12.292Z,101474.21
2019-03-19T04:18:19.071Z,101478.28
2019-03-19T04:23:25.873Z,101481.30
2019-03-19T04:28:32.895Z,101497.25
2019-03-19T04:33:39.874Z,101509.67
2019-03-19T04:38:48.943Z,101504.91
2019-03-19T04:43:55.942Z,101513.59
2019-03-19T04:49:05.961Z,101519.06
2019-03-19T04:54:13.881Z,101535.37
2019-03-19T04:59:25.128Z,101536.22
2019-03-19T05:04:33.847Z,101536.57
2019-03-19T05:09:43.899Z,101538.91
2019-03-19T05:14:52.995Z,101551.87
2019-03-19T05:20:02.148Z,101554.06
2019-03-19T05:25:12.915Z,101568.56
2019-03-19T05:30:27.794Z,101571.61
2019-03-19T05:35:37.763Z,101587.95
2019-03-19T05:40:48.225Z,101592.44
2019-03-19T05:45:57.054Z,101605.08
2019-03-19T05:51:08.393Z,101614.45
2019-03-19T05:56:19.776Z,101622.97
2019-03-19T06:01:26.383Z,101622.66
2019-03-19T06:06:32.315Z,101643.73
2019-03-19T06:11:38.276Z,101636.23
2019-03-19T06:16:44.168Z,101646.77
2019-03-19T06:21:50.238Z,101653.67
2019-03-19T06:26:57.431Z,101656.36
2019-03-19T06:32:04.715Z,101667.80
2019-03-19T06:37:12.231Z,101670.73
2019-03-19T06:42:19.487Z,101676.70
2019-03-19T06:47:25.319Z,101689.98
2019-03-19T06:52:31.926Z,101684.10
2019-03-19T06:57:39.695Z,101676.16
2019-03-19T07:02:46.606Z,101683.08
2019-03-19T07:07:52.787Z,101689.53
2019-03-19T07:12:58.894Z,101695.41
2019-03-19T07:18:06.157Z,101697.44
2019-03-19T07:23:13.565Z,101702.50
2019-03-19T07:28:22.201Z,101709.25
2019-03-19T07:33:29.227Z,101710.33
2019-03-19T07:38:37.269Z,101720.88
2019-03-19T07:43:44.950Z,101729.28
2019-03-19T07:48:51.468Z,101728.17
2019-03-19T07:53:57.943Z,101736.86
2019-03-19T07:59:05.254Z,101749.22
2019-03-19T08:04:11.246Z,101762.67
2019-03-19T08:09:17.712Z,101762.44
2019-03-19T08:14:24.368Z,101778.44
2019-03-19T08:19:31.550Z,101776.78
2019-03-19T08:24:38.462Z,101786.56
2019-03-19T08:29:45.176Z,101793.73
2019-03-19T08:34:51.191Z,101797.95
2019-03-19T08:39:57.240Z,101807.92
2019-03-19T08:45:03.261Z,101809.50
2019-03-19T08:50:14.747Z,101813.03
2019-03-19T08:55:22.192Z,101811.89
2019-03-19T09:00:28.826Z,101788.59
2019-03-19T09:05:34.652Z,101791.16
2019-03-19T09:10:40.592Z,101805.67
2019-03-19T09:15:47.503Z,101805.87
2019-03-19T09:20:54.286Z,101805.75
2019-03-19T09:26:00.714Z,101820.91
2019-03-19T09:31:07.164Z,101823.78
2019-03-19T09:36:14.033Z,101817.30
2019-03-19T09:41:22.150Z,101827.61
2019-03-19T09:46:28.258Z,101819.47
2019-03-19T09:51:34.482Z,101820.78
2019-03-19T09:56:40.352Z,101819.09
2019-03-19T10:01:46.924Z,101832.95
2019-03-19T10:06:53.214Z,101834.78
2019-03-19T10:11:58.863Z,101838.43
2019-03-19T10:17:04.704Z,101841.28
2019-03-19T10:22:11.308Z,101855.98
2019-03-19T10:27:16.934Z,101840.45
2019-03-19T10:32:22.906Z,101860.95
2019-03-19T10:37:28.469Z,101860.85
2019-03-19T10:42:34.932Z,101866.03
2019-03-19T10:47:40.739Z,101857.66
2019-03-19T10:52:47.156Z,101855.80
2019-03-19T10:57:54.348Z,101857.17
2019-03-19T11:02:59.921Z,101856.70
2019-03-19T11:08:07.079Z,101867.28
2019-03-19T11:13:12.675Z,101871.16
2019-03-19T11:18:19.857Z,101875.49
2019-03-19T11:23:25.811Z,101869.53
2019-03-19T11:28:31.623Z,101894.31
2019-03-19T11:33:37.317Z,101879.28
2019-03-19T11:38:43.389Z,101887.08
2019-03-19T11:43:49.232Z,101899.11
2019-03-19T11:48:54.948Z,101893.12
2019-03-19T11:54:00.517Z,101888.66
2019-03-19T11:59:06.458Z,101881.95
2019-03-19T12:04:12.043Z,101885.68
2019-03-19T12:09:18.181Z,101888.31
2019-03-19T12:14:24.401Z,101887.20
2019-03-19T12:19:32.259Z,101907.05
2019-03-19T12:24:38.605Z,101909.06
2019-03-19T12:29:46.034Z,101897.11
2019-03-19T12:34:53.751Z,101912.02
2019-03-19T12:40:00.368Z,101899.81
2019-03-19T12:45:08.922Z,101915.28
2019-03-19T12:50:19.704Z,101909.69
2019-03-19T12:55:26.024Z,101923.64
2019-03-19T13:00:34.572Z,101922.48
2019-03-19T13:05:39.676Z,101917.14
2019-03-19T13:10:45.725Z,101923.09
2019-03-19T13:15:52.030Z,101906.89
2019-03-19T13:20:58.946Z,101916.20
2019-03-19T13:26:04.568Z,101916.53
2019-03-19T13:31:10.656Z,101912.91
2019-03-19T13:36:16.354Z,101907.05
2019-03-19T13:41:23.815Z,101914.09
2019-03-19T13:46:30.131Z,101917.73
2019-03-19T13:51:37.776Z,101916.28
2019-03-19T13:56:43.381Z,101920.31
2019-03-19T14:01:49.930Z,101935.05
2019-03-19T14:06:55.765Z,101931.44
2019-03-19T14:12:01.844Z,101931.47
2019-03-19T14:17:09.179Z,101945.40
2019-03-19T14:22:15.701Z,101942.80
2019-03-19T14:27:22.046Z,101949.16
2019-03-19T14:32:28.171Z,101941.02
2019-03-19T14:37:35.153Z,101942.01
2019-03-19T14:42:42.520Z,101951.83
2019-03-19T14:47:50.541Z,101940.61
2019-03-19T14:52:57.600Z,101946.41
2019-03-19T14:58:04.130Z,101948.16
2019-03-19T15:03:10.067Z,101953.05
2019-03-19T15:08:16.795Z,101953.34
2019-03-19T15:13:22.744Z,101961.25
2019-03-19T15:18:28.751Z,101965.62
2019-03-19T15:23:36.822Z,101960.38
2019-03-19T15:28:46.445Z,101959.58
2019-03-19T15:33:54.797Z,101972.40
2019-03-19T15:39:01.058Z,101980.08
2019-03-19T15:44:10.160Z,101979.50
2019-03-19T15:49:16.330Z,101976.76
2019-03-19T15:54:22.656Z,101988.17
2019-03-19T15:59:29.670Z,102001.66
2019-03-19T16:04:35.792Z,102001.30
2019-03-19T16:09:41.985Z,102009.17
2019-03-19T16:14:49.082Z,102006.24
2019-03-19T16:19:57.028Z,102009.88
2019-03-19T16:25:03.225Z,102019.97
2019-03-19T16:30:16.236Z,102023.16
2019-03-19T16:35:24.894Z,102034.97
2019-03-19T16:40:31.276Z,102046.47
2019-03-19T16:45:37.726Z,102052.83
2019-03-19T16:50:43.867Z,102053.13
2019-03-19T16:55:52.352Z,102062.53
2019-03-19T17:00:59.690Z,102063.94
2019-03-19T17:06:06.357Z,102070.44
2019-03-19T17:11:11.999Z,102080.06
2019-03-19T17:16:18.972Z,102077.33
2019-03-19T17:21:26.217Z,102083.07
2019-03-19T17:26:32.303Z,102082.11
2019-03-19T17:31:38.625Z,102091.52
2019-03-19T17:36:44.572Z,102105.98
2019-03-19T17:41:50.614Z,102103.44
2019-03-19T17:46:56.887Z,102112.49
2019-03-19T17:52:02.641Z,102113.48
2019-03-19T17:57:08.525Z,102115.44
2019-03-19T18:02:23.578Z,102124.65
2019-03-19T18:07:23.925Z,102130.48
2019-03-19T18:12:30.236Z,102136.03
2019-03-19T18:17:36.832Z,102142.42
2019-03-19T18:22:42.772Z,102149.20
2019-03-19T18:27:48.756Z,102152.64
2019-03-19T18:32:55.559Z,102162.11
2019-03-19T18:38:02.030Z,102164.16
2019-03-19T18:43:07.886Z,102165.42
2019-03-19T18:48:13.814Z,102177.78
2019-03-19T18:53:20.885Z,102182.18
2019-03-19T18:58:27.147Z,102189.75
2019-03-19T19:03:33.986Z,102185.81
2019-03-19T19:08:40.275Z,102185.17
2019-03-19T19:13:48.118Z,102196.82
2019-03-19T19:18:55.172Z,102198.23
2019-03-19T19:24:01.972Z,102205.93
2019-03-19T19:29:07.970Z,102210.77
2019-03-19T19:34:14.340Z,102201.38
2019-03-19T19:39:20.870Z,102214.92
2019-03-19T19:44:29.876Z,102223.43
2019-03-19T19:49:35.296Z,102229.33
2019-03-19T19:54:41.526Z,102229.20
2019-03-19T19:59:47.467Z,102238.06
2019-03-19T20:05:02.617Z,102238.98
2019-03-19T20:10:02.540Z,102243.54
2019-03-19T20:15:10.826Z,102255.59
2019-03-19T20:20:22.487Z,102254.63
2019-03-19T20:25:28.498Z,102270.25
2019-03-19T20:30:35.322Z,102269.12
2019-03-19T20:35:42.461Z,102274.75
2019-03-19T20:40:48.997Z,102276.03
2019-03-19T20:45:54.657Z,102287.89
2019-03-19T20:51:02.042Z,102301.45
2019-03-19T20:56:09.539Z,102306.17
2019-03-19T21:01:22.078Z,102322.59
2019-03-19T21:06:28.903Z,102336.95
2019-03-19T21:11:37.610Z,102328.63
2019-03-19T21:16:44.783Z,102346.59
2019-03-19T21:21:50.349Z,102347.83
2019-03-19T21:26:56.614Z,102348.27
2019-03-19T21:32:04.627Z,102348.53
2019-03-19T21:37:10.895Z,102348.49
2019-03-19T21:42:18.342Z,102351.35
2019-03-19T21:47:24.471Z,102356.10
2019-03-19T21:52:29.999Z,102354.55
2019-03-19T21:57:36.166Z,102364.16
2019-03-19T22:02:43.219Z,102371.30
2019-03-19T22:07:50.529Z,102376.06
2019-03-19T22:12:56.280Z,102371.55
2019-03-19T22:18:03.436Z,102364.17
2019-03-19T22:23:09.173Z,102366.05
2019-03-19T22:28:15.072Z,102362.17
2019-03-19T22:33:23.219Z,102372.22
2019-03-19T22:38:29.175Z,102379.89
2019-03-19T22:43:36.349Z,102379.43
2019-03-19T22:48:42.862Z,102379.37
2019-03-19T22:53:48.872Z,102390.50
2019-03-19T22:58:54.415Z,102386.34
2019-03-19T23:04:00.010Z,102387.55
2019-03-19T23:09:07.493Z,102395.43
2019-03-19T23:14:14.790Z,102394.02
2019-03-19T23:19:22.147Z,102400.79
2019-03-19T23:24:28.083Z,102403.89
2019-03-19T23:29:33.854Z,102402.39
2019-03-19T23:34:41.037Z,102406.34
2019-03-19T23:39:47.233Z,102406.70
2019-03-19T23:44:52.871Z,102410.45
2019-03-19T23:49:58.772Z,102404.68
2019-03-19T23:55:06.669Z,102404.22
